sensor_id;sensor_type;location;lat;lon;timestamp;pressure;altitude;pressure_sealevel;temperature;humidity
46942;BME280;32676;52.630;4.896;2023-07-24T00:01:01;100398.31;;;17.89;80.61
46942;BME280;32676;52.630;4.896;2023-07-24T00:03:28;100393.19;;;17.86;80.55
46942;BME280;32676;52.630;4.896;2023-07-24T00:05:57;100392.34;;;17.86;80.80
46942;BME280;32676;52.630;4.896;2023-07-24T00:08:23;100384.44;;;17.84;80.66
46942;BME280;32676;52.630;4.896;2023-07-24T00:10:51;100375.75;;;17.82;80.79
46942;BME280;32676;52.630;4.896;2023-07-24T00:13:17;100375.75;;;17.82;80.76
46942;BME280;32676;52.630;4.896;2023-07-24T00:15:44;100374.06;;;17.81;80.79
46942;BME280;32676;52.630;4.896;2023-07-24T00:18:10;100375.00;;;17.80;81.10
46942;BME280;32676;52.630;4.896;2023-07-24T00:20:36;100365.31;;;17.79;81.20
46942;BME280;32676;52.630;4.896;2023-07-24T00:23:03;100360.88;;;17.79;81.32
46942;BME280;32676;52.630;4.896;2023-07-24T00:25:29;100362.66;;;17.79;81.35
46942;BME280;32676;52.630;4.896;2023-07-24T00:27:56;100351.28;;;17.77;81.53
46942;BME280;32676;52.630;4.896;2023-07-24T00:30:23;100350.44;;;17.76;81.58
46942;BME280;32676;52.630;4.896;2023-07-24T00:32:49;100345.34;;;17.73;81.67
46942;BME280;32676;52.630;4.896;2023-07-24T00:35:16;100330.47;;;17.71;81.92
46942;BME280;32676;52.630;4.896;2023-07-24T00:37:42;100321.75;;;17.69;81.92
46942;BME280;32676;52.630;4.896;2023-07-24T00:40:08;100314.72;;;17.68;82.16
46942;BME280;32676;52.630;4.896;2023-07-24T00:42:35;100304.34;;;17.64;82.20
46942;BME280;32676;52.630;4.896;2023-07-24T00:45:03;100301.69;;;17.64;82.20
46942;BME280;32676;52.630;4.896;2023-07-24T00:47:29;100302.63;;;17.63;82.43
46942;BME280;32676;52.630;4.896;2023-07-24T00:49:56;100308.78;;;17.64;82.49
46942;BME280;32676;52.630;4.896;2023-07-24T00:52:22;100320.88;;;17.68;82.46
46942;BME280;32676;52.630;4.896;2023-07-24T00:54:49;100314.97;;;17.64;82.38
46942;BME280;32676;52.630;4.896;2023-07-24T00:57:15;100291.25;;;17.61;82.54
46942;BME280;32676;52.630;4.896;2023-07-24T00:59:43;100295.84;;;17.59;82.54
46942;BME280;32676;52.630;4.896;2023-07-24T01:02:11;100273.94;;;17.56;82.73
46942;BME280;32676;52.630;4.896;2023-07-24T01:04:38;100266.94;;;17.55;82.64
46942;BME280;32676;52.630;4.896;2023-07-24T01:07:04;100274.06;;;17.54;82.67
46942;BME280;32676;52.630;4.896;2023-07-24T01:09:31;100260.03;;;17.52;82.64
46942;BME280;32676;52.630;4.896;2023-07-24T01:11:59;100250.44;;;17.50;82.77
46942;BME280;32676;52.630;4.896;2023-07-24T01:14:29;100245.25;;;17.48;82.94
46942;BME280;32676;52.630;4.896;2023-07-24T01:16:58;100227.84;;;17.44;83.08
46942;BME280;32676;52.630;4.896;2023-07-24T01:19:33;100230.50;;;17.44;83.24
46942;BME280;32676;52.630;4.896;2023-07-24T01:22:15;100215.53;;;17.43;83.41
46942;BME280;32676;52.630;4.896;2023-07-24T01:24:48;100212.97;;;17.41;83.43
46942;BME280;32676;52.630;4.896;2023-07-24T01:27:24;100212.13;;;17.41;83.51
46942;BME280;32676;52.630;4.896;2023-07-24T01:29:51;100217.44;;;17.41;83.62
46942;BME280;32676;52.630;4.896;2023-07-24T01:32:17;100215.72;;;17.40;83.82
46942;BME280;32676;52.630;4.896;2023-07-24T01:34:43;100222.63;;;17.42;83.84
46942;BME280;32676;52.630;4.896;2023-07-24T01:37:10;100222.75;;;17.41;83.86
46942;BME280;32676;52.630;4.896;2023-07-24T01:39:38;100216.47;;;17.42;83.91
46942;BME280;32676;52.630;4.896;2023-07-24T01:42:06;100218.28;;;17.41;83.75
46942;BME280;32676;52.630;4.896;2023-07-24T01:44:34;100223.50;;;17.43;83.91
46942;BME280;32676;52.630;4.896;2023-07-24T01:47:00;100241.00;;;17.45;84.10
46942;BME280;32676;52.630;4.896;2023-07-24T01:49:26;100246.31;;;17.45;84.14
46942;BME280;32676;52.630;4.896;2023-07-24T01:51:53;100259.28;;;17.50;84.15
46942;BME280;32676;52.630;4.896;2023-07-24T01:54:18;100278.63;;;17.52;84.12
46942;BME280;32676;52.630;4.896;2023-07-24T01:56:44;100286.34;;;17.55;83.95
46942;BME280;32676;52.630;4.896;2023-07-24T01:59:11;100292.44;;;17.57;84.10
46942;BME280;32676;52.630;4.896;2023-07-24T02:01:38;100296.78;;;17.58;84.12
46942;BME280;32676;52.630;4.896;2023-07-24T02:04:05;100306.47;;;17.59;83.85
46942;BME280;32676;52.630;4.896;2023-07-24T02:06:31;100313.47;;;17.60;83.87
46942;BME280;32676;52.630;4.896;2023-07-24T02:08:57;100322.16;;;17.62;83.90
46942;BME280;32676;52.630;4.896;2023-07-24T02:11:24;100330.03;;;17.64;83.87
46942;BME280;32676;52.630;4.896;2023-07-24T02:13:50;100339.63;;;17.67;84.12
46942;BME280;32676;52.630;4.896;2023-07-24T02:16:16;100343.13;;;17.67;83.90
46942;BME280;32676;52.630;4.896;2023-07-24T02:18:44;100348.34;;;17.69;83.82
46942;BME280;32676;52.630;4.896;2023-07-24T02:21:10;100355.31;;;17.70;83.91
46942;BME280;32676;52.630;4.896;2023-07-24T02:23:37;100354.59;;;17.68;84.05
46942;BME280;32676;52.630;4.896;2023-07-24T02:26:03;100366.69;;;17.72;83.76
46942;BME280;32676;52.630;4.896;2023-07-24T02:28:29;100369.34;;;17.72;83.95
46942;BME280;32676;52.630;4.896;2023-07-24T02:30:55;100383.41;;;17.74;83.81
46942;BME280;32676;52.630;4.896;2023-07-24T02:33:22;100381.50;;;17.76;83.59
46942;BME280;32676;52.630;4.896;2023-07-24T02:35:51;100391.16;;;17.77;83.52
46942;BME280;32676;52.630;4.896;2023-07-24T02:38:17;100389.47;;;17.76;83.62
46942;BME280;32676;52.630;4.896;2023-07-24T02:40:43;100388.50;;;17.77;83.58
46942;BME280;32676;52.630;4.896;2023-07-24T02:43:10;100403.41;;;17.79;83.52
46942;BME280;32676;52.630;4.896;2023-07-24T02:45:37;100409.56;;;17.80;83.57
46942;BME280;32676;52.630;4.896;2023-07-24T02:48:04;100421.91;;;17.81;83.41
46942;BME280;32676;52.630;4.896;2023-07-24T02:50:30;100421.91;;;17.81;83.47
46942;BME280;32676;52.630;4.896;2023-07-24T02:52:58;100421.75;;;17.82;83.31
46942;BME280;32676;52.630;4.896;2023-07-24T02:55:25;100428.72;;;17.85;83.34
46942;BME280;32676;52.630;4.896;2023-07-24T02:57:51;100433.06;;;17.86;83.42
46942;BME280;32676;52.630;4.896;2023-07-24T03:00:17;100437.44;;;17.87;83.20
46942;BME280;32676;52.630;4.896;2023-07-24T03:02:44;100448.06;;;17.87;83.34
46942;BME280;32676;52.630;4.896;2023-07-24T03:05:10;100444.44;;;17.88;83.35
46942;BME280;32676;52.630;4.896;2023-07-24T03:07:36;100453.19;;;17.90;83.44
46942;BME280;32676;52.630;4.896;2023-07-24T03:10:04;100458.50;;;17.90;83.53
46942;BME280;32676;52.630;4.896;2023-07-24T03:12:32;100462.84;;;17.91;83.38
46942;BME280;32676;52.630;4.896;2023-07-24T03:14:59;100459.34;;;17.91;83.30
46942;BME280;32676;52.630;4.896;2023-07-24T03:17:25;100465.50;;;17.91;83.23
46942;BME280;32676;52.630;4.896;2023-07-24T03:19:53;100465.50;;;17.91;83.55
46942;BME280;32676;52.630;4.896;2023-07-24T03:22:20;100461.91;;;17.92;83.44
46942;BME280;32676;52.630;4.896;2023-07-24T03:24:46;100476.88;;;17.93;83.43
46942;BME280;32676;52.630;4.896;2023-07-24T03:27:14;100467.22;;;17.92;83.26
46942;BME280;32676;52.630;4.896;2023-07-24T03:29:40;100449.75;;;17.88;83.35
46942;BME280;32676;52.630;4.896;2023-07-24T03:32:07;100448.91;;;17.88;83.34
46942;BME280;32676;52.630;4.896;2023-07-24T03:34:33;100455.06;;;17.88;83.57
46942;BME280;32676;52.630;4.896;2023-07-24T03:36:59;100449.75;;;17.88;83.33
46942;BME280;32676;52.630;4.896;2023-07-24T03:39:26;100463.81;;;17.90;83.29
46942;BME280;32676;52.630;4.896;2023-07-24T03:41:52;100465.50;;;17.91;83.23
46942;BME280;32676;52.630;4.896;2023-07-24T03:44:19;100473.38;;;17.93;83.33
46942;BME280;32676;52.630;4.896;2023-07-24T03:46:46;100475.09;;;17.94;83.18
46942;BME280;32676;52.630;4.896;2023-07-24T03:49:12;100474.22;;;17.93;83.04
46942;BME280;32676;52.630;4.896;2023-07-24T03:51:38;100463.81;;;17.90;83.14
46942;BME280;32676;52.630;4.896;2023-07-24T03:54:05;100455.84;;;17.90;83.14
46942;BME280;32676;52.630;4.896;2023-07-24T03:56:31;100459.34;;;17.91;83.35
46942;BME280;32676;52.630;4.896;2023-07-24T03:58:58;100472.53;;;17.92;83.12
46942;BME280;32676;52.630;4.896;2023-07-24T04:01:25;100471.66;;;17.92;83.18
46942;BME280;32676;52.630;4.896;2023-07-24T04:03:52;100474.22;;;17.93;83.04
46942;BME280;32676;52.630;4.896;2023-07-24T04:06:18;100482.94;;;17.95;83.20
46942;BME280;32676;52.630;4.896;2023-07-24T04:08:45;100485.59;;;17.95;83.09
46942;BME280;32676;52.630;4.896;2023-07-24T04:11:11;100488.25;;;17.95;82.83
46942;BME280;32676;52.630;4.896;2023-07-24T04:13:37;100493.56;;;17.95;82.80
46942;BME280;32676;52.630;4.896;2023-07-24T04:16:04;100488.25;;;17.95;82.82
46942;BME280;32676;52.630;4.896;2023-07-24T04:18:32;100489.13;;;17.96;82.80
46942;BME280;32676;52.630;4.896;2023-07-24T04:20:58;100488.25;;;17.95;83.04
46942;BME280;32676;52.630;4.896;2023-07-24T04:23:24;100488.25;;;17.95;82.81
46942;BME280;32676;52.630;4.896;2023-07-24T04:25:50;100497.84;;;17.98;82.79
46942;BME280;32676;52.630;4.896;2023-07-24T04:28:17;100504.75;;;18.00;82.84
46942;BME280;32676;52.630;4.896;2023-07-24T04:30:43;100500.41;;;17.99;82.70
46942;BME280;32676;52.630;4.896;2023-07-24T04:33:09;100504.84;;;17.99;82.63
46942;BME280;32676;52.630;4.896;2023-07-24T04:35:37;100498.69;;;17.98;82.77
46942;BME280;32676;52.630;4.896;2023-07-24T04:38:03;100498.69;;;17.98;82.77
46942;BME280;32676;52.630;4.896;2023-07-24T04:40:29;100498.69;;;17.98;82.97
46942;BME280;32676;52.630;4.896;2023-07-24T04:42:56;100501.25;;;18.00;82.70
46942;BME280;32676;52.630;4.896;2023-07-24T04:45:23;100512.72;;;18.00;82.77
46942;BME280;32676;52.630;4.896;2023-07-24T04:47:49;100514.44;;;18.01;82.82
46942;BME280;32676;52.630;4.896;2023-07-24T04:50:15;100522.31;;;18.03;82.70
46942;BME280;32676;52.630;4.896;2023-07-24T04:52:43;100514.44;;;18.01;82.81
46942;BME280;32676;52.630;4.896;2023-07-24T04:55:09;100519.66;;;18.03;82.68
46942;BME280;32676;52.630;4.896;2023-07-24T04:57:36;100522.31;;;18.03;82.73
46942;BME280;32676;52.630;4.896;2023-07-24T05:00:02;100523.16;;;18.03;82.96
46942;BME280;32676;52.630;4.896;2023-07-24T05:02:29;100532.72;;;18.06;83.02
46942;BME280;32676;52.630;4.896;2023-07-24T05:04:55;100533.59;;;18.07;83.02
46942;BME280;32676;52.630;4.896;2023-07-24T05:07:21;100541.47;;;18.08;82.90
46942;BME280;32676;52.630;4.896;2023-07-24T05:09:49;100543.25;;;18.08;82.81
46942;BME280;32676;52.630;4.896;2023-07-24T05:12:15;100558.91;;;18.12;82.86
46942;BME280;32676;52.630;4.896;2023-07-24T05:14:42;100570.41;;;18.13;82.97
46942;BME280;32676;52.630;4.896;2023-07-24T05:17:08;100578.16;;;18.16;82.91
46942;BME280;32676;52.630;4.896;2023-07-24T05:19:34;100579.84;;;18.17;82.79
46942;BME280;32676;52.630;4.896;2023-07-24T05:22:00;100584.22;;;18.18;82.71
46942;BME280;32676;52.630;4.896;2023-07-24T05:24:27;100586.88;;;18.18;82.48
46942;BME280;32676;52.630;4.896;2023-07-24T05:26:54;100584.22;;;18.18;82.29
46942;BME280;32676;52.630;4.896;2023-07-24T05:29:21;100582.50;;;18.17;82.28
46942;BME280;32676;52.630;4.896;2023-07-24T05:31:47;100597.44;;;18.19;82.13
46942;BME280;32676;52.630;4.896;2023-07-24T05:34:14;100602.66;;;18.21;82.10
46942;BME280;32676;52.630;4.896;2023-07-24T05:36:40;100610.50;;;18.22;82.02
46942;BME280;32676;52.630;4.896;2023-07-24T05:39:06;100613.94;;;18.25;82.12
46942;BME280;32676;52.630;4.896;2023-07-24T05:41:33;100627.88;;;18.28;81.94
46942;BME280;32676;52.630;4.896;2023-07-24T05:44:00;100647.97;;;18.32;81.97
46942;BME280;32676;52.630;4.896;2023-07-24T05:46:27;100654.06;;;18.34;81.98
46942;BME280;32676;52.630;4.896;2023-07-24T05:48:53;100656.63;;;18.36;82.22
46942;BME280;32676;52.630;4.896;2023-07-24T05:51:19;100671.50;;;18.38;82.04
46942;BME280;32676;52.630;4.896;2023-07-24T05:53:46;100681.94;;;18.41;82.08
46942;BME280;32676;52.630;4.896;2023-07-24T05:56:12;100697.72;;;18.45;82.18
46942;BME280;32676;52.630;4.896;2023-07-24T05:58:38;100707.28;;;18.47;82.14
46942;BME280;32676;52.630;4.896;2023-07-24T06:01:06;100720.50;;;18.49;82.32
46942;BME280;32676;52.630;4.896;2023-07-24T06:03:35;100719.50;;;18.50;81.99
46942;BME280;32676;52.630;4.896;2023-07-24T06:06:01;100720.38;;;18.50;82.06
46942;BME280;32676;52.630;4.896;2023-07-24T06:08:27;100740.59;;;18.53;82.00
46942;BME280;32676;52.630;4.896;2023-07-24T06:10:54;100732.63;;;18.53;81.93
46942;BME280;32676;52.630;4.896;2023-07-24T06:13:20;100734.34;;;18.54;81.92
46942;BME280;32676;52.630;4.896;2023-07-24T06:15:46;100740.50;;;18.54;82.09
46942;BME280;32676;52.630;4.896;2023-07-24T06:18:14;100739.66;;;18.54;81.90
46942;BME280;32676;52.630;4.896;2023-07-24T06:20:40;100748.41;;;18.56;81.80
46942;BME280;32676;52.630;4.896;2023-07-24T06:23:07;100756.28;;;18.57;81.65
46942;BME280;32676;52.630;4.896;2023-07-24T06:25:33;100757.97;;;18.58;81.53
46942;BME280;32676;52.630;4.896;2023-07-24T06:27:59;100772.91;;;18.61;81.56
46942;BME280;32676;52.630;4.896;2023-07-24T06:30:26;100776.31;;;18.63;81.46
46942;BME280;32676;52.630;4.896;2023-07-24T06:32:52;100795.50;;;18.68;81.43
46942;BME280;32676;52.630;4.896;2023-07-24T06:35:20;100816.34;;;18.74;81.52
46942;BME280;32676;52.630;4.896;2023-07-24T06:37:46;100835.75;;;18.76;81.48
46942;BME280;32676;52.630;4.896;2023-07-24T06:40:12;100850.53;;;18.80;81.45
46942;BME280;32676;52.630;4.896;2023-07-24T06:42:38;100871.59;;;18.85;81.58
46942;BME280;32676;52.630;4.896;2023-07-24T06:45:05;100885.56;;;18.89;81.53
46942;BME280;32676;52.630;4.896;2023-07-24T06:47:32;100904.00;;;18.92;81.25
46942;BME280;32676;52.630;4.896;2023-07-24T06:49:58;100907.41;;;18.94;80.96
46942;BME280;32676;52.630;4.896;2023-07-24T06:52:26;100898.66;;;18.92;80.99
46942;BME280;32676;52.630;4.896;2023-07-24T06:54:53;100898.66;;;18.92;80.81
46942;BME280;32676;52.630;4.896;2023-07-24T06:57:19;100898.66;;;18.92;80.80
46942;BME280;32676;52.630;4.896;2023-07-24T06:59:45;100911.75;;;18.95;80.92
46942;BME280;32676;52.630;4.896;2023-07-24T07:02:11;100917.09;;;18.95;81.07
46942;BME280;32676;52.630;4.896;2023-07-24T07:04:38;100923.91;;;18.99;80.97
46942;BME280;32676;52.630;4.896;2023-07-24T07:07:04;100939.69;;;19.02;80.75
46942;BME280;32676;52.630;4.896;2023-07-24T07:09:32;100958.16;;;19.05;80.92
46942;BME280;32676;52.630;4.896;2023-07-24T07:11:58;100955.47;;;19.05;80.79
46942;BME280;32676;52.630;4.896;2023-07-24T07:14:24;100951.97;;;19.05;80.59
46942;BME280;32676;52.630;4.896;2023-07-24T07:16:51;100951.09;;;19.04;80.17
46942;BME280;32676;52.630;4.896;2023-07-24T07:19:17;100956.31;;;19.06;79.93
46942;BME280;32676;52.630;4.896;2023-07-24T07:21:43;100943.00;;;19.06;79.87
46942;BME280;32676;52.630;4.896;2023-07-24T07:24:09;100964.13;;;19.09;79.99
46942;BME280;32676;52.630;4.896;2023-07-24T07:26:37;101003.56;;;19.16;79.92
46942;BME280;32676;52.630;4.896;2023-07-24T07:29:03;101027.13;;;19.23;80.02
46942;BME280;32676;52.630;4.896;2023-07-24T07:31:30;101042.94;;;19.26;79.84
46942;BME280;32676;52.630;4.896;2023-07-24T07:33:56;101063.00;;;19.31;79.41
46942;BME280;32676;52.630;4.896;2023-07-24T07:36:22;101083.13;;;19.35;79.42
46942;BME280;32676;52.630;4.896;2023-07-24T07:38:49;101092.75;;;19.38;80.09
46942;BME280;32676;52.630;4.896;2023-07-24T07:41:15;101117.31;;;19.43;80.75
46942;BME280;32676;52.630;4.896;2023-07-24T07:43:43;101164.59;;;19.54;80.69
46942;BME280;32676;52.630;4.896;2023-07-24T07:46:09;101189.03;;;19.61;79.99
46942;BME280;32676;52.630;4.896;2023-07-24T07:48:36;101218.72;;;19.69;78.73
46942;BME280;32676;52.630;4.896;2023-07-24T07:51:02;101254.00;;;19.74;77.83
46942;BME280;32676;52.630;4.896;2023-07-24T07:53:28;101273.19;;;19.79;77.74
46942;BME280;32676;52.630;4.896;2023-07-24T07:55:56;101307.41;;;19.87;77.71
46942;BME280;32676;52.630;4.896;2023-07-24T07:58:24;101345.00;;;19.97;78.00
46942;BME280;32676;52.630;4.896;2023-07-24T08:00:51;101413.41;;;20.12;77.97
46942;BME280;32676;52.630;4.896;2023-07-24T08:03:18;101442.38;;;20.18;77.86
46942;BME280;32676;52.630;4.896;2023-07-24T08:05:44;101466.00;;;20.24;77.29
46942;BME280;32676;52.630;4.896;2023-07-24T08:08:10;101456.28;;;20.23;76.41
46942;BME280;32676;52.630;4.896;2023-07-24T08:10:37;101458.94;;;20.23;76.29
46942;BME280;32676;52.630;4.896;2023-07-24T08:13:03;101462.38;;;20.25;76.13
46942;BME280;32676;52.630;4.896;2023-07-24T08:15:33;101509.84;;;20.35;76.16
46942;BME280;32676;52.630;4.896;2023-07-24T08:18:01;101553.72;;;20.45;76.10
46942;BME280;32676;52.630;4.896;2023-07-24T08:20:27;101557.13;;;20.47;75.57
46942;BME280;32676;52.630;4.896;2023-07-24T08:22:53;101571.25;;;20.49;75.45
46942;BME280;32676;52.630;4.896;2023-07-24T08:25:20;101579.06;;;20.52;75.13
46942;BME280;32676;52.630;4.896;2023-07-24T08:27:46;101599.19;;;20.58;74.09
46942;BME280;32676;52.630;4.896;2023-07-24T08:30:12;101658.91;;;20.71;73.71
46942;BME280;32676;52.630;4.896;2023-07-24T08:32:39;101692.31;;;20.78;73.13
46942;BME280;32676;52.630;4.896;2023-07-24T08:35:07;101736.09;;;20.90;73.28
46942;BME280;32676;52.630;4.896;2023-07-24T08:37:33;101826.72;;;21.09;72.85
46942;BME280;32676;52.630;4.896;2023-07-24T08:39:59;101933.97;;;21.33;72.42
46942;BME280;32676;52.630;4.896;2023-07-24T08:42:26;102056.34;;;21.60;71.60
46942;BME280;32676;52.630;4.896;2023-07-24T08:44:54;102128.31;;;21.79;70.87
46942;BME280;32676;52.630;4.896;2023-07-24T08:47:20;102209.34;;;21.97;69.47
46942;BME280;32676;52.630;4.896;2023-07-24T08:49:47;102324.00;;;22.20;69.38
46942;BME280;32676;52.630;4.896;2023-07-24T08:52:16;102424.41;;;22.45;68.84
46942;BME280;32676;52.630;4.896;2023-07-24T08:54:43;102499.41;;;22.61;67.72
46942;BME280;32676;52.630;4.896;2023-07-24T08:57:10;102591.06;;;22.84;66.93
46942;BME280;32676;52.630;4.896;2023-07-24T08:59:37;102707.69;;;23.08;67.30
46942;BME280;32676;52.630;4.896;2023-07-24T09:02:03;102795.97;;;23.29;66.46
46942;BME280;32676;52.630;4.896;2023-07-24T09:04:30;102856.91;;;23.43;65.23
46942;BME280;32676;52.630;4.896;2023-07-24T09:06:57;102826.78;;;23.37;64.86
46942;BME280;32676;52.630;4.896;2023-07-24T09:09:28;102770.16;;;23.26;64.60
46942;BME280;32676;52.630;4.896;2023-07-24T09:11:56;102675.50;;;23.08;64.56
46942;BME280;32676;52.630;4.896;2023-07-24T09:14:23;102628.75;;;22.96;65.94
46942;BME280;32676;52.630;4.896;2023-07-24T09:17:01;102620.44;;;23.01;65.97
46942;BME280;32676;52.630;4.896;2023-07-24T09:19:27;102601.78;;;22.99;65.58
46942;BME280;32676;52.630;4.896;2023-07-24T09:21:53;102578.75;;;22.95;65.50
46942;BME280;32676;52.630;4.896;2023-07-24T09:24:20;102548.78;;;22.89;64.46
46942;BME280;32676;52.630;4.896;2023-07-24T09:26:51;102515.16;;;22.83;64.70
46942;BME280;32676;52.630;4.896;2023-07-24T09:29:18;102522.06;;;22.87;64.92
46942;BME280;32676;52.630;4.896;2023-07-24T09:31:45;102472.59;;;22.77;64.70
46942;BME280;32676;52.630;4.896;2023-07-24T09:34:18;102435.44;;;22.71;65.17
46942;BME280;32676;52.630;4.896;2023-07-24T09:36:45;102483.91;;;22.82;65.97
46942;BME280;32676;52.630;4.896;2023-07-24T09:39:11;102556.19;;;22.99;65.81
46942;BME280;32676;52.630;4.896;2023-07-24T09:41:38;102655.09;;;23.22;65.83
46942;BME280;32676;52.630;4.896;2023-07-24T09:44:06;102719.66;;;23.34;64.54
46942;BME280;32676;52.630;4.896;2023-07-24T09:46:32;102690.28;;;23.31;64.66
46942;BME280;32676;52.630;4.896;2023-07-24T09:48:59;102594.03;;;23.11;66.10
46942;BME280;32676;52.630;4.896;2023-07-24T09:51:26;102513.47;;;22.96;68.14
46942;BME280;32676;52.630;4.896;2023-07-24T09:53:55;102427.78;;;22.79;69.66
46942;BME280;32676;52.630;4.896;2023-07-24T09:56:22;102371.28;;;22.68;69.57
46942;BME280;32676;52.630;4.896;2023-07-24T09:58:48;102268.84;;;22.48;68.96
46942;BME280;32676;52.630;4.896;2023-07-24T10:01:20;102235.31;;;22.41;69.23
46942;BME280;32676;52.630;4.896;2023-07-24T10:03:48;102178.88;;;22.30;68.97
46942;BME280;32676;52.630;4.896;2023-07-24T10:06:15;102155.88;;;22.26;67.21
46942;BME280;32676;52.630;4.896;2023-07-24T10:08:42;102147.94;;;22.24;67.17
46942;BME280;32676;52.630;4.896;2023-07-24T10:11:08;102157.66;;;22.27;68.00
46942;BME280;32676;52.630;4.896;2023-07-24T10:13:35;102099.47;;;22.14;67.96
46942;BME280;32676;52.630;4.896;2023-07-24T10:16:02;102053.53;;;22.06;68.94
46942;BME280;32676;52.630;4.896;2023-07-24T10:18:33;102002.50;;;21.95;68.90
46942;BME280;32676;52.630;4.896;2023-07-24T10:21:00;101954.88;;;21.85;69.68
46942;BME280;32676;52.630;4.896;2023-07-24T10:23:27;101916.94;;;21.79;70.96
46942;BME280;32676;52.630;4.896;2023-07-24T10:25:53;101917.03;;;21.77;71.55
46942;BME280;32676;52.630;4.896;2023-07-24T10:28:29;101947.81;;;21.84;71.14
46942;BME280;32676;52.630;4.896;2023-07-24T10:30:55;101970.63;;;21.90;70.29
46942;BME280;32676;52.630;4.896;2023-07-24T10:33:22;101967.13;;;21.90;69.72
46942;BME280;32676;52.630;4.896;2023-07-24T10:35:52;101963.50;;;21.91;69.05
46942;BME280;32676;52.630;4.896;2023-07-24T10:38:19;101947.63;;;21.88;68.71
46942;BME280;32676;52.630;4.896;2023-07-24T10:40:46;101972.28;;;21.93;68.82
46942;BME280;32676;52.630;4.896;2023-07-24T10:43:14;101957.94;;;21.94;68.81
46942;BME280;32676;52.630;4.896;2023-07-24T10:45:46;101929.84;;;21.87;68.35
46942;BME280;32676;52.630;4.896;2023-07-24T10:48:13;101892.75;;;21.80;67.60
46942;BME280;32676;52.630;4.896;2023-07-24T10:50:39;101876.88;;;21.77;67.20
46942;BME280;32676;52.630;4.896;2023-07-24T10:53:07;101834.66;;;21.68;67.81
46942;BME280;32676;52.630;4.896;2023-07-24T10:55:34;101803.81;;;21.62;68.93
46942;BME280;32676;52.630;4.896;2023-07-24T10:58:00;101797.63;;;21.62;69.89
46942;BME280;32676;52.630;4.896;2023-07-24T11:00:26;101851.28;;;21.73;70.40
46942;BME280;32676;52.630;4.896;2023-07-24T11:02:53;101877.56;;;21.81;69.61
46942;BME280;32676;52.630;4.896;2023-07-24T11:05:20;101912.81;;;21.88;70.19
46942;BME280;32676;52.630;4.896;2023-07-24T11:07:46;101964.63;;;22.01;71.15
46942;BME280;32676;52.630;4.896;2023-07-24T11:10:17;102043.91;;;22.18;71.57
46942;BME280;32676;52.630;4.896;2023-07-24T11:12:44;102038.63;;;22.16;71.38
46942;BME280;32676;52.630;4.896;2023-07-24T11:15:11;102055.28;;;22.21;71.70
46942;BME280;32676;52.630;4.896;2023-07-24T11:17:38;102077.31;;;22.27;71.16
46942;BME280;32676;52.630;4.896;2023-07-24T11:20:06;102050.78;;;22.22;70.70
46942;BME280;32676;52.630;4.896;2023-07-24T11:22:33;102041.91;;;22.21;70.15
46942;BME280;32676;52.630;4.896;2023-07-24T11:24:59;102037.47;;;22.20;69.59
46942;BME280;32676;52.630;4.896;2023-07-24T11:27:28;102005.75;;;22.14;69.77
46942;BME280;32676;52.630;4.896;2023-07-24T11:29:54;101955.47;;;22.05;69.21
46942;BME280;32676;52.630;4.896;2023-07-24T11:32:21;101932.50;;;22.01;69.11
46942;BME280;32676;52.630;4.896;2023-07-24T11:34:48;101894.56;;;21.94;69.54
46942;BME280;32676;52.630;4.896;2023-07-24T11:37:14;101870.75;;;21.90;69.81
46942;BME280;32676;52.630;4.896;2023-07-24T11:39:41;101814.41;;;21.78;69.93
46942;BME280;32676;52.630;4.896;2023-07-24T11:42:07;101767.88;;;21.66;70.24
46942;BME280;32676;52.630;4.896;2023-07-24T11:44:35;101735.34;;;21.60;69.37
46942;BME280;32676;52.630;4.896;2023-07-24T11:47:01;101745.84;;;21.63;68.33
46942;BME280;32676;52.630;4.896;2023-07-24T11:49:28;101769.63;;;21.67;68.20
46942;BME280;32676;52.630;4.896;2023-07-24T11:51:59;101787.84;;;21.75;68.53
46942;BME280;32676;52.630;4.896;2023-07-24T11:54:25;101857.38;;;21.90;68.84
46942;BME280;32676;52.630;4.896;2023-07-24T11:56:52;101876.69;;;21.95;67.68
46942;BME280;32676;52.630;4.896;2023-07-24T11:59:18;101867.81;;;21.94;66.51
46942;BME280;32676;52.630;4.896;2023-07-24T12:01:46;101859.88;;;21.93;66.22
46942;BME280;32676;52.630;4.896;2023-07-24T12:04:13;101892.47;;;21.99;65.99
46942;BME280;32676;52.630;4.896;2023-07-24T12:06:40;101931.91;;;22.10;66.58
46942;BME280;32676;52.630;4.896;2023-07-24T12:09:06;102022.59;;;22.31;66.28
46942;BME280;32676;52.630;4.896;2023-07-24T12:11:33;102072.72;;;22.43;66.11
46942;BME280;32676;52.630;4.896;2023-07-24T12:14:00;102070.06;;;22.43;65.50
46942;BME280;32676;52.630;4.896;2023-07-24T12:16:27;102055.09;;;22.39;65.56
46942;BME280;32676;52.630;4.896;2023-07-24T12:18:55;102042.69;;;22.38;65.42
46942;BME280;32676;52.630;4.896;2023-07-24T12:21:21;102024.88;;;22.37;65.23
46942;BME280;32676;52.630;4.896;2023-07-24T12:23:48;102013.50;;;22.33;65.39
46942;BME280;32676;52.630;4.896;2023-07-24T12:26:14;101998.28;;;22.34;65.14
46942;BME280;32676;52.630;4.896;2023-07-24T12:28:40;101969.31;;;22.26;64.63
46942;BME280;32676;52.630;4.896;2023-07-24T12:31:06;101951.63;;;22.23;65.04
46942;BME280;32676;52.630;4.896;2023-07-24T12:33:33;101949.88;;;22.22;64.99
46942;BME280;32676;52.630;4.896;2023-07-24T12:36:00;101910.13;;;22.16;64.38
46942;BME280;32676;52.630;4.896;2023-07-24T12:38:27;101853.75;;;22.05;63.91
46942;BME280;32676;52.630;4.896;2023-07-24T12:40:54;101862.53;;;22.07;64.43
46942;BME280;32676;52.630;4.896;2023-07-24T12:43:21;101865.97;;;22.09;65.38
46942;BME280;32676;52.630;4.896;2023-07-24T12:45:47;101901.13;;;22.17;65.04
46942;BME280;32676;52.630;4.896;2023-07-24T12:48:13;101932.03;;;22.23;64.59